Time;durP1;ratioP1;P1;durP2;ratioP2;P2;SDS_P1;SDS_P2;PMS_P1;PMS_P2;Temp;Humidity;BMP_temperature;BMP_pressure;BME280_temperature;BME280_humidity;BME280_pressure;Samples;Min_cycle;Max_cycle;Signal;HPM_P1;HPM_P2
2021/03/25 00:00:30;;;;;;;63.17;36.15;;;9.40;85.30;;;;;;5033466;28;20115;-72
2021/03/25 00:02:58;;;;;;;60.55;33.88;;;9.40;85.40;;;;;;5033162;28;20161;-72
2021/03/25 00:05:25;;;;;;;60.03;33.20;;;9.40;85.40;;;;;;5049768;28;20033;-72
2021/03/25 00:07:51;;;;;;;62.85;33.60;;;9.40;85.60;;;;;;5042087;28;20045;-73
2021/03/25 00:10:29;;;;;;;61.65;34.58;;;9.30;85.70;;;;;;5032073;28;20520;-73
2021/03/25 00:12:55;;;;;;;65.43;34.50;;;9.30;85.90;;;;;;5033781;28;20496;-73
2021/03/25 00:15:21;;;;;;;60.45;33.67;;;9.30;85.90;;;;;;5049958;28;20108;-73
2021/03/25 00:17:46;;;;;;;60.85;34.80;;;9.30;86.00;;;;;;5043236;28;20502;-73
2021/03/25 00:20:14;;;;;;;63.72;35.53;;;9.30;86.10;;;;;;5047779;28;20067;-73
2021/03/25 00:22:40;;;;;;;67.05;36.13;;;9.30;86.30;;;;;;5046021;28;20495;-72
2021/03/25 00:25:08;;;;;;;59.97;32.80;;;9.30;86.30;;;;;;5044599;28;20421;-73
2021/03/25 00:27:34;;;;;;;59.45;35.03;;;9.20;86.40;;;;;;5033614;28;20382;-72
2021/03/25 00:29:59;;;;;;;59.90;32.80;;;9.30;86.50;;;;;;5042302;28;20025;-72
2021/03/25 00:32:25;;;;;;;58.65;33.45;;;9.20;86.60;;;;;;5015429;28;20108;-72
2021/03/25 00:34:50;;;;;;;69.57;34.25;;;9.30;86.80;;;;;;5042864;28;20497;-72
2021/03/25 00:37:16;;;;;;;64.63;34.58;;;9.20;86.80;;;;;;5033184;28;20038;-72
2021/03/25 00:39:41;;;;;;;67.05;33.67;;;9.20;87.40;;;;;;5034015;28;20028;-72
2021/03/25 00:42:07;;;;;;;63.38;34.70;;;9.20;87.00;;;;;;5049463;28;20040;-73
2021/03/25 00:44:33;;;;;;;60.20;33.45;;;9.20;87.10;;;;;;5049488;28;20508;-73
2021/03/25 00:46:58;;;;;;;58.95;33.00;;;9.20;87.10;;;;;;5034268;28;20029;-73
2021/03/25 00:49:24;;;;;;;61.20;32.58;;;9.10;87.10;;;;;;5034778;28;20025;-73
2021/03/25 00:51:50;;;;;;;63.63;33.00;;;9.10;87.20;;;;;;5015083;28;20493;-73
2021/03/25 00:54:15;;;;;;;63.92;33.35;;;9.10;87.30;;;;;;5034279;28;20370;-73
2021/03/25 00:56:41;;;;;;;59.10;34.13;;;9.10;87.30;;;;;;5033075;28;20020;-73
2021/03/25 00:59:07;;;;;;;68.13;34.45;;;9.10;87.40;;;;;;5034813;28;20080;-73
2021/03/25 01:01:33;;;;;;;64.18;34.83;;;9.00;87.50;;;;;;5032890;28;20053;-72
2021/03/25 01:03:59;;;;;;;66.20;35.10;;;9.00;87.60;;;;;;5031045;28;20478;-71
2021/03/25 01:06:24;;;;;;;67.13;34.90;;;9.00;87.60;;;;;;5033065;28;20032;-72
2021/03/25 01:08:50;;;;;;;66.75;35.30;;;8.90;87.70;;;;;;5034150;28;20448;-71
2021/03/25 01:11:19;;;;;;;57.88;32.67;;;8.90;87.80;;;;;;5032588;28;20076;-70
2021/03/25 01:13:54;;;;;;;62.20;33.63;;;8.90;87.90;;;;;;5032118;28;20036;-71
2021/03/25 01:16:30;;;;;;;64.28;34.10;;;8.90;88.00;;;;;;5032893;28;20481;-71
2021/03/25 01:18:57;;;;;;;65.47;35.15;;;8.80;87.90;;;;;;5036649;28;20037;-73
2021/03/25 01:21:23;;;;;;;65.95;33.88;;;8.80;88.00;;;;;;5052190;28;20037;-73
2021/03/25 01:23:49;;;;;;;63.25;34.97;;;8.80;88.10;;;;;;5028012;28;20079;-73
2021/03/25 01:26:15;;;;;;;65.43;35.58;;;8.80;88.10;;;;;;5052460;28;20025;-73
2021/03/25 01:29:02;;;;;;;57.75;32.50;;;8.80;88.30;;;;;;5048102;28;20031;-72
2021/03/25 01:31:48;;;;;;;62.60;33.67;;;8.70;88.10;;;;;;5051665;28;20040;-73
2021/03/25 01:34:17;;;;;;;61.65;33.38;;;8.70;88.30;;;;;;5043973;28;20028;-73
2021/03/25 01:36:42;;;;;;;62.08;33.83;;;8.70;88.40;;;;;;5050382;28;20037;-73
2021/03/25 01:39:08;;;;;;;66.38;35.45;;;8.60;88.50;;;;;;5044730;28;20017;-73
2021/03/25 01:41:36;;;;;;;65.53;33.20;;;8.60;88.60;;;;;;5048757;28;20435;-73
2021/03/25 01:44:04;;;;;;;62.00;34.75;;;8.60;88.80;;;;;;5037153;28;20032;-73
2021/03/25 01:46:36;;;;;;;61.30;34.58;;;8.60;88.80;;;;;;5050056;28;20082;-73
2021/03/25 01:49:15;;;;;;;60.63;33.47;;;8.60;88.90;;;;;;5036735;28;20025;-73
2021/03/25 01:52:16;;;;;;;59.90;31.92;;;8.60;89.00;;;;;;5031036;28;20111;-73
2021/03/25 01:55:16;;;;;;;64.05;32.67;;;8.60;89.00;;;;;;5030854;28;20030;-73
2021/03/25 01:58:20;;;;;;;67.78;34.38;;;8.50;88.90;;;;;;5020428;28;20071;-73
2021/03/25 02:00:52;;;;;;;62.63;32.67;;;8.50;88.90;;;;;;5031559;28;20038;-73
2021/03/25 02:03:41;;;;;;;66.15;32.72;;;8.50;89.00;;;;;;5029110;28;20463;-73
2021/03/25 02:06:26;;;;;;;61.45;33.50;;;8.50;89.10;;;;;;5012905;28;20038;-72
2021/03/25 02:09:05;;;;;;;58.80;31.20;;;8.50;89.20;;;;;;5023243;28;20033;-73
2021/03/25 02:12:06;;;;;;;61.67;31.63;;;8.50;89.20;;;;;;5042345;28;20033;-73
2021/03/25 02:14:49;;;;;;;57.78;31.95;;;8.50;89.30;;;;;;5029901;28;20037;-72
2021/03/25 02:17:26;;;;;;;59.90;30.67;;;8.40;89.20;;;;;;5011985;28;20042;-72
2021/03/25 02:20:12;;;;;;;59.53;31.10;;;8.40;89.20;;;;;;5036018;28;20033;-73
2021/03/25 02:23:02;;;;;;;63.38;31.60;;;8.40;89.20;;;;;;5031054;28;20045;-72
2021/03/25 02:25:36;;;;;;;54.95;31.33;;;8.40;89.30;;;;;;5041012;28;20060;-72
2021/03/25 02:28:17;;;;;;;61.35;33.42;;;8.40;89.50;;;;;;5031587;28;20033;-72
2021/03/25 02:30:45;;;;;;;60.50;32.25;;;8.40;89.70;;;;;;5021163;28;20021;-73
2021/03/25 02:33:19;;;;;;;63.05;32.53;;;8.40;89.70;;;;;;5030107;28;20091;-72
2021/03/25 02:35:58;;;;;;;62.45;33.70;;;8.40;89.70;;;;;;5031297;28;20037;-72
2021/03/25 02:38:35;;;;;;;57.88;32.38;;;8.40;89.80;;;;;;5033412;28;20065;-72
2021/03/25 02:41:04;;;;;;;62.67;33.92;;;8.40;89.90;;;;;;5035644;28;20034;-73
2021/03/25 02:43:43;;;;;;;58.53;31.10;;;8.40;89.90;;;;;;5030950;28;20037;-73
2021/03/25 02:46:20;;;;;;;60.65;33.30;;;8.40;90.00;;;;;;5037634;28;20032;-73
2021/03/25 02:48:49;;;;;;;61.72;31.33;;;8.40;90.00;;;;;;5055207;28;20029;-74
2021/03/25 02:51:36;;;;;;;57.78;34.47;;;8.40;90.00;;;;;;5033651;28;20079;-73
2021/03/25 02:54:02;;;;;;;56.17;30.92;;;8.40;90.00;;;;;;5014750;28;20149;-73
2021/03/25 02:57:05;;;;;;;58.88;32.33;;;8.40;90.00;;;;;;5034480;28;20018;-73
2021/03/25 02:59:36;;;;;;;60.13;29.73;;;8.40;90.00;;;;;;5050346;28;20117;-73
2021/03/25 03:02:23;;;;;;;62.63;30.55;;;8.40;90.00;;;;;;5033068;28;20037;-73
2021/03/25 03:04:51;;;;;;;62.67;31.65;;;8.40;90.10;;;;;;5047603;28;20075;-72
2021/03/25 03:07:24;;;;;;;60.72;33.30;;;8.40;90.10;;;;;;5052085;28;20519;-73
2021/03/25 03:09:56;;;;;;;60.28;32.13;;;8.40;90.20;;;;;;5039243;28;20061;-72
2021/03/25 03:12:25;;;;;;;58.17;30.50;;;8.40;90.20;;;;;;5042193;28;20162;-73
2021/03/25 03:14:58;;;;;;;60.30;32.38;;;8.30;90.20;;;;;;5036733;28;20037;-73
2021/03/25 03:17:36;;;;;;;63.25;33.17;;;8.30;90.30;;;;;;5036692;28;20052;-73
2021/03/25 03:20:09;;;;;;;61.83;30.92;;;8.30;90.30;;;;;;5034623;28;20095;-73
2021/03/25 03:22:36;;;;;;;62.35;31.98;;;8.30;90.30;;;;;;5033643;28;20414;-73
2021/03/25 03:25:12;;;;;;;60.35;31.42;;;8.30;90.30;;;;;;5034674;28;20021;-74
2021/03/25 03:27:43;;;;;;;59.92;30.90;;;8.20;90.30;;;;;;5031564;28;20212;-73
2021/03/25 03:30:32;;;;;;;61.15;30.13;;;8.20;90.30;;;;;;5034597;28;20026;-73
2021/03/25 03:33:17;;;;;;;63.05;30.83;;;8.20;90.40;;;;;;5045542;28;20045;-71
2021/03/25 03:35:49;;;;;;;62.13;30.55;;;8.20;90.30;;;;;;5054668;28;20116;-71
2021/03/25 03:38:28;;;;;;;61.80;31.42;;;8.10;90.30;;;;;;5048737;28;20029;-72
2021/03/25 03:40:56;;;;;;;63.88;32.50;;;8.10;90.40;;;;;;5054322;28;20057;-73
2021/03/25 03:43:22;;;;;;;63.05;32.33;;;8.10;90.40;;;;;;5047673;28;20037;-73
2021/03/25 03:45:53;;;;;;;65.43;32.00;;;8.10;90.40;;;;;;5046122;28;20486;-72
2021/03/25 03:48:28;;;;;;;64.47;32.83;;;8.10;90.50;;;;;;5033410;28;20040;-72
2021/03/25 03:50:56;;;;;;;64.13;31.75;;;8.00;90.50;;;;;;5034066;28;20033;-72
2021/03/25 03:53:24;;;;;;;57.95;30.67;;;8.00;90.60;;;;;;5039699;28;20039;-72
2021/03/25 03:55:52;;;;;;;59.05;31.35;;;7.90;90.60;;;;;;5012943;28;20457;-73
2021/03/25 03:58:21;;;;;;;57.05;30.23;;;8.00;90.60;;;;;;5044337;28;20045;-73
2021/03/25 04:01:04;;;;;;;54.97;29.23;;;7.90;90.60;;;;;;5037880;28;20084;-73
2021/03/25 04:03:34;;;;;;;62.17;31.65;;;7.90;90.50;;;;;;5050859;28;20033;-72
2021/03/25 04:06:08;;;;;;;63.78;32.33;;;7.90;90.70;;;;;;5036731;28;20026;-73
2021/03/25 04:08:40;;;;;;;62.33;31.65;;;7.90;90.70;;;;;;5050708;28;20098;-73
2021/03/25 04:11:33;;;;;;;62.78;30.50;;;7.90;90.70;;;;;;5048570;28;20033;-74
2021/03/25 04:14:05;;;;;;;61.35;30.65;;;7.80;90.80;;;;;;5044243;28;20034;-73
2021/03/25 04:16:31;;;;;;;64.20;31.17;;;7.80;90.80;;;;;;5034725;28;20068;-74
2021/03/25 04:19:07;;;;;;;59.67;31.80;;;7.80;90.80;;;;;;5045217;28;20045;-73
2021/03/25 04:21:38;;;;;;;60.30;31.13;;;7.80;90.80;;;;;;5032728;28;20133;-73
2021/03/25 04:24:11;;;;;;;61.42;32.20;;;7.90;90.90;;;;;;5033981;28;20091;-73
2021/03/25 04:26:55;;;;;;;61.85;30.58;;;7.80;90.90;;;;;;5033919;28;20037;-73
2021/03/25 04:29:31;;;;;;;62.08;31.70;;;7.90;91.00;;;;;;5043053;28;20032;-72
2021/03/25 04:31:58;;;;;;;61.95;31.27;;;7.80;90.90;;;;;;5036995;28;20813;-72
2021/03/25 04:34:25;;;;;;;60.22;31.30;;;7.80;91.00;;;;;;5038813;28;20084;-72
2021/03/25 04:36:52;;;;;;;60.13;30.17;;;7.80;91.00;;;;;;5035314;28;20164;-72
2021/03/25 04:39:19;;;;;;;62.03;31.27;;;7.80;91.00;;;;;;5040488;28;20101;-72
2021/03/25 04:41:45;;;;;;;54.13;30.20;;;7.80;91.10;;;;;;5044711;28;20036;-72
2021/03/25 04:44:32;;;;;;;58.80;31.98;;;7.80;91.00;;;;;;5034363;28;20041;-72
2021/03/25 04:47:12;;;;;;;58.72;30.50;;;7.80;91.00;;;;;;5036759;28;20032;-72
2021/03/25 04:49:44;;;;;;;55.90;28.70;;;7.80;90.90;;;;;;5034654;28;20022;-72
2021/03/25 04:52:23;;;;;;;58.38;30.13;;;7.80;90.90;;;;;;5034084;28;20040;-72
2021/03/25 04:54:48;;;;;;;69.07;31.58;;;7.70;91.00;;;;;;5033257;28;20528;-74
2021/03/25 04:57:33;;;;;;;63.35;31.23;;;7.70;91.00;;;;;;5035376;28;20037;-73
2021/03/25 05:00:03;;;;;;;61.97;30.60;;;7.70;91.10;;;;;;5032710;28;20061;-72
2021/03/25 05:02:32;;;;;;;64.30;30.33;;;7.70;91.00;;;;;;5035184;28;20077;-71
2021/03/25 05:05:00;;;;;;;62.03;31.73;;;7.70;91.10;;;;;;5046788;28;20036;-72
2021/03/25 05:07:29;;;;;;;65.25;31.30;;;7.60;91.20;;;;;;5045326;28;20029;-73
2021/03/25 05:09:56;;;;;;;74.75;37.75;;;7.70;91.30;;;;;;5019498;28;20034;-72
2021/03/25 05:12:22;;;;;;;76.05;37.05;;;7.60;91.30;;;;;;5033551;28;20048;-72
2021/03/25 05:14:51;;;;;;;73.72;37.72;;;7.60;91.30;;;;;;5045158;28;20526;-72
2021/03/25 05:17:48;;;;;;;73.63;36.80;;;7.70;91.40;;;;;;5038947;28;20040;-71
2021/03/25 05:20:32;;;;;;;75.72;38.50;;;7.70;91.40;;;;;;5048033;28;20041;-72
2021/03/25 05:23:09;;;;;;;75.35;36.35;;;7.70;91.40;;;;;;5023771;28;20124;-71
2021/03/25 05:25:51;;;;;;;68.80;32.78;;;7.70;91.40;;;;;;5018976;28;20036;-72
2021/03/25 05:28:59;;;;;;;63.42;32.28;;;7.70;91.40;;;;;;5031729;28;20041;-71
2021/03/25 05:31:46;;;;;;;71.38;32.95;;;7.70;91.40;;;;;;5030975;28;20108;-72
2021/03/25 05:34:13;;;;;;;60.42;29.67;;;7.70;91.40;;;;;;5049596;28;20029;-72
2021/03/25 05:36:39;;;;;;;62.08;31.40;;;7.70;91.40;;;;;;5038077;28;20029;-71
2021/03/25 05:39:05;;;;;;;65.57;32.15;;;7.70;91.50;;;;;;5047673;28;20081;-72
2021/03/25 05:41:36;;;;;;;62.20;30.83;;;7.70;91.50;;;;;;5031676;28;20049;-71
2021/03/25 05:44:13;;;;;;;60.33;28.58;;;7.70;91.60;;;;;;5050530;28;20024;-72
2021/03/25 05:46:44;;;;;;;63.55;31.73;;;7.80;91.60;;;;;;5016737;28;20018;-72
2021/03/25 05:49:21;;;;;;;63.45;30.27;;;7.80;91.50;;;;;;5039884;28;20087;-72
2021/03/25 05:52:20;;;;;;;55.55;30.52;;;7.80;91.60;;;;;;5017036;28;20424;-73
2021/03/25 05:54:56;;;;;;;57.35;29.00;;;7.80;91.50;;;;;;5032773;28;20029;-71
2021/03/25 05:57:34;;;;;;;63.47;30.20;;;7.80;91.50;;;;;;5038456;28;20036;-72
2021/03/25 06:00:30;;;;;;;60.35;30.02;;;7.90;91.50;;;;;;5013731;28;20442;-71
2021/03/25 06:03:01;;;;;;;71.43;30.58;;;7.90;91.50;;;;;;5038397;28;20048;-71
2021/03/25 06:05:27;;;;;;;63.53;31.15;;;7.90;91.50;;;;;;5010553;28;20397;-73
2021/03/25 06:08:21;;;;;;;61.35;29.83;;;7.90;91.50;;;;;;5023716;28;20033;-71
2021/03/25 06:11:09;;;;;;;62.70;30.30;;;8.00;91.60;;;;;;5030988;28;20425;-71
2021/03/25 06:13:59;;;;;;;57.70;30.42;;;8.00;91.50;;;;;;5030802;28;20028;-72
2021/03/25 06:16:32;;;;;;;58.63;31.17;;;8.00;91.50;;;;;;5031205;28;20386;-72
2021/03/25 06:19:23;;;;;;;58.60;29.25;;;8.00;91.60;;;;;;5031592;28;20033;-72
2021/03/25 06:21:57;;;;;;;64.95;30.88;;;8.10;91.60;;;;;;5035951;28;20561;-72
2021/03/25 06:24:46;;;;;;;63.80;30.87;;;8.10;91.50;;;;;;5029982;28;20494;-72
2021/03/25 06:27:49;;;;;;;63.63;31.50;;;8.20;91.60;;;;;;5031547;28;20625;-72
2021/03/25 06:30:39;;;;;;;62.67;31.73;;;8.20;91.50;;;;;;5032217;28;20024;-72
2021/03/25 06:33:30;;;;;;;59.47;31.25;;;8.30;91.50;;;;;;5036101;28;20375;-70
2021/03/25 06:36:05;;;;;;;65.95;32.55;;;8.30;91.50;;;;;;5031022;28;20028;-69
2021/03/25 06:38:39;;;;;;;64.40;30.85;;;8.30;91.50;;;;;;5032728;28;20526;-70
2021/03/25 06:41:13;;;;;;;64.10;32.22;;;8.40;91.50;;;;;;5047196;28;20485;-71
2021/03/25 06:44:13;;;;;;;65.20;31.83;;;8.40;91.50;;;;;;5038719;28;20026;-71
2021/03/25 06:46:42;;;;;;;63.30;32.05;;;8.50;91.50;;;;;;5031762;28;20053;-75
2021/03/25 06:49:25;;;;;;;62.30;33.10;;;8.50;91.40;;;;;;5032423;28;20546;-72
2021/03/25 06:51:53;;;;;;;62.92;32.33;;;8.60;91.40;;;;;;5033870;28;20055;-71
2021/03/25 06:54:25;;;;;;;67.63;33.95;;;8.70;91.30;;;;;;5031838;28;20049;-71
2021/03/25 06:56:53;;;;;;;63.33;30.70;;;8.70;91.30;;;;;;5032927;28;20029;-71
2021/03/25 06:59:28;;;;;;;65.88;30.77;;;8.80;91.20;;;;;;5014604;28;20501;-72
2021/03/25 07:02:04;;;;;;;59.75;29.25;;;8.90;91.10;;;;;;5030762;28;20033;-72
2021/03/25 07:04:35;;;;;;;58.72;29.80;;;9.00;91.00;;;;;;5030940;28;20643;-71
2021/03/25 07:07:04;;;;;;;51.08;27.67;;;9.10;90.90;;;;;;5024020;28;20128;-72
2021/03/25 07:09:33;;;;;;;63.55;31.67;;;9.20;90.70;;;;;;5011564;28;20022;-72
2021/03/25 07:12:02;;;;;;;57.50;28.92;;;9.30;90.60;;;;;;5016750;28;20029;-72
2021/03/25 07:14:40;;;;;;;58.67;29.63;;;9.30;90.40;;;;;;5031309;28;20030;-73
2021/03/25 07:17:09;;;;;;;64.40;31.02;;;9.30;90.30;;;;;;5011763;28;20083;-72
2021/03/25 07:19:37;;;;;;;57.08;30.90;;;9.40;90.20;;;;;;5013284;28;20036;-72
2021/03/25 07:22:26;;;;;;;61.78;31.33;;;9.40;90.10;;;;;;5028811;28;20371;-72
2021/03/25 07:24:53;;;;;;;56.08;28.52;;;9.50;90.10;;;;;;5011476;28;20022;-72
2021/03/25 07:27:33;;;;;;;61.85;30.60;;;9.50;89.90;;;;;;5031952;28;20550;-71
2021/03/25 07:30:10;;;;;;;60.95;30.33;;;9.50;89.80;;;;;;5050425;28;20500;-71
2021/03/25 07:32:48;;;;;;;62.05;32.20;;;9.60;90.00;;;;;;5044353;28;20037;-73
2021/03/25 07:35:37;;;;;;;64.05;32.65;;;9.60;89.80;;;;;;5023976;28;20116;-73
2021/03/25 07:38:24;;;;;;;60.30;30.67;;;9.70;89.70;;;;;;5032981;28;20057;-72
2021/03/25 07:41:06;;;;;;;62.70;31.27;;;9.80;89.60;;;;;;5032710;28;20026;-71
2021/03/25 07:43:56;;;;;;;60.22;31.70;;;9.80;89.50;;;;;;5025789;28;20176;-72
2021/03/25 07:46:34;;;;;;;64.65;33.03;;;9.90;89.30;;;;;;5020600;28;20085;-72
2021/03/25 07:49:00;;;;;;;59.42;30.48;;;10.00;89.40;;;;;;5046590;28;20036;-72
2021/03/25 07:51:26;;;;;;;56.90;29.33;;;10.10;89.20;;;;;;5031867;28;20393;-72
2021/03/25 07:54:09;;;;;;;58.17;30.30;;;10.10;88.80;;;;;;5053718;28;20487;-72
2021/03/25 07:56:35;;;;;;;57.28;30.10;;;10.20;88.90;;;;;;5051126;28;20033;-72
2021/03/25 07:59:00;;;;;;;58.60;29.48;;;10.30;88.70;;;;;;5053800;28;20090;-73
2021/03/25 08:01:25;;;;;;;57.70;30.08;;;10.30;88.60;;;;;;5039783;28;20132;-73
2021/03/25 08:03:56;;;;;;;54.95;29.08;;;10.40;88.00;;;;;;5042295;28;20029;-73
2021/03/25 08:06:32;;;;;;;57.10;29.35;;;10.40;87.80;;;;;;5032928;28;20108;-72
2021/03/25 08:09:12;;;;;;;54.95;28.45;;;10.50;87.60;;;;;;5033794;28;20133;-72
2021/03/25 08:11:54;;;;;;;60.90;30.63;;;10.60;87.40;;;;;;5032307;28;20053;-72
2021/03/25 08:14:32;;;;;;;54.80;28.52;;;10.70;87.30;;;;;;5015611;28;20626;-71
2021/03/25 08:17:13;;;;;;;62.75;30.98;;;10.80;87.10;;;;;;5031402;28;20049;-70
2021/03/25 08:19:48;;;;;;;52.22;27.98;;;10.90;87.00;;;;;;5033361;28;20068;-72
2021/03/25 08:22:29;;;;;;;64.45;32.25;;;11.00;86.70;;;;;;5039079;28;20055;-72
2021/03/25 08:25:13;;;;;;;58.08;30.10;;;11.10;86.10;;;;;;5030417;28;20116;-73
2021/03/25 08:27:55;;;;;;;65.20;31.73;;;11.20;85.60;;;;;;5040622;28;20033;-72
2021/03/25 08:30:49;;;;;;;59.80;31.70;;;11.30;85.60;;;;;;5043235;28;20147;-71
2021/03/25 08:33:30;;;;;;;62.67;31.10;;;11.30;85.20;;;;;;5027509;28;20120;-72
2021/03/25 08:36:21;;;;;;;60.20;31.05;;;11.40;84.80;;;;;;5037268;28;20120;-73
2021/03/25 08:39:16;;;;;;;55.53;30.60;;;11.40;83.90;;;;;;5018631;28;20115;-73
2021/03/25 08:41:57;;;;;;;60.53;32.40;;;11.60;83.70;;;;;;5035054;28;20042;-73
2021/03/25 08:44:35;;;;;;;57.58;30.75;;;11.60;83.00;;;;;;5013081;28;20044;-74
2021/03/25 08:47:02;;;;;;;61.40;31.23;;;11.70;83.00;;;;;;5034778;28;20031;-73
2021/03/25 08:49:36;;;;;;;58.47;29.40;;;11.80;82.50;;;;;;5050747;28;20033;-73
2021/03/25 08:52:05;;;;;;;58.78;30.73;;;11.90;82.00;;;;;;5037164;28;20359;-74
2021/03/25 08:54:47;;;;;;;58.70;30.48;;;12.00;81.90;;;;;;5050895;28;20029;-75
2021/03/25 08:57:23;;;;;;;57.80;31.50;;;12.10;82.10;;;;;;5018945;28;20076;-73
2021/03/25 09:00:11;;;;;;;58.40;29.75;;;12.20;81.00;;;;;;5034386;28;20077;-73
2021/03/25 09:02:57;;;;;;;61.17;31.00;;;12.30;81.30;;;;;;5030193;28;20046;-72
2021/03/25 09:05:35;;;;;;;60.30;30.65;;;12.30;80.60;;;;;;5032269;28;20110;-73
2021/03/25 09:08:06;;;;;;;60.17;30.85;;;12.50;80.70;;;;;;5018010;28;20034;-73
2021/03/25 09:10:46;;;;;;;61.28;31.15;;;12.60;80.00;;;;;;5033001;28;20039;-73
2021/03/25 09:13:15;;;;;;;54.22;30.58;;;12.60;79.40;;;;;;5038269;28;20037;-72
2021/03/25 09:15:42;;;;;;;54.70;29.38;;;12.70;78.90;;;;;;5010850;28;20025;-73
2021/03/25 09:18:10;;;;;;;59.55;30.40;;;12.80;78.50;;;;;;5035267;28;20036;-72
2021/03/25 09:20:39;;;;;;;62.15;32.08;;;12.90;77.40;;;;;;5032049;28;20030;-74
2021/03/25 09:23:30;;;;;;;59.63;29.40;;;13.00;77.10;;;;;;5029452;28;20037;-74
2021/03/25 09:25:57;;;;;;;51.42;29.73;;;13.10;77.40;;;;;;5031528;28;20105;-74
2021/03/25 09:28:23;;;;;;;52.72;27.95;;;13.10;76.80;;;;;;5032934;28;20036;-73
2021/03/25 09:31:08;;;;;;;59.85;30.90;;;13.30;77.00;;;;;;5032359;28;20385;-74
2021/03/25 09:33:49;;;;;;;57.10;30.63;;;13.40;76.60;;;;;;5035161;28;20025;-73
2021/03/25 09:36:18;;;;;;;58.40;30.08;;;13.50;75.90;;;;;;5029706;28;20049;-73
2021/03/25 09:38:59;;;;;;;60.08;30.33;;;13.60;75.20;;;;;;5034388;28;20030;-73
2021/03/25 09:41:24;;;;;;;58.95;29.63;;;13.60;73.60;;;;;;5030543;28;20090;-74
2021/03/25 09:43:53;;;;;;;54.63;29.65;;;13.70;73.60;;;;;;5038060;28;20029;-73
2021/03/25 09:46:42;;;;;;;54.63;30.52;;;13.70;73.70;;;;;;5029573;28;20060;-74
2021/03/25 09:49:18;;;;;;;57.78;30.63;;;13.90;73.50;;;;;;4981871;28;20482;-73
2021/03/25 09:51:45;;;;;;;53.78;29.65;;;14.00;73.00;;;;;;5029518;28;20037;-74
2021/03/25 09:54:24;;;;;;;52.22;28.52;;;14.10;72.30;;;;;;5030637;28;20076;-72
2021/03/25 09:57:17;;;;;;;64.35;31.48;;;14.20;71.90;;;;;;5028756;28;20044;-73
2021/03/25 09:59:46;;;;;;;56.72;30.20;;;14.20;70.80;;;;;;5043952;28;20076;-73
2021/03/25 10:02:12;;;;;;;56.70;31.10;;;14.30;70.20;;;;;;5015075;28;20112;-73
2021/03/25 10:04:39;;;;;;;52.63;28.48;;;14.40;70.20;;;;;;5030776;28;20112;-74
2021/03/25 10:07:14;;;;;;;64.75;33.75;;;14.40;70.10;;;;;;5029015;28;20339;-74
2021/03/25 10:09:50;;;;;;;61.42;30.63;;;14.60;68.90;;;;;;5028897;28;20037;-74
2021/03/25 10:12:45;;;;;;;58.47;30.35;;;14.60;68.80;;;;;;5027245;28;20037;-73
2021/03/25 10:15:30;;;;;;;57.45;30.55;;;14.70;67.80;;;;;;5004166;28;20036;-73
2021/03/25 10:18:03;;;;;;;49.65;29.38;;;14.80;68.80;;;;;;5032345;28;20043;-71
2021/03/25 10:20:47;;;;;;;54.90;28.00;;;14.80;68.80;;;;;;5029482;28;20063;-74
2021/03/25 10:23:18;;;;;;;57.22;30.15;;;15.00;68.40;;;;;;5044106;28;20133;-73
2021/03/25 10:25:43;;;;;;;54.67;29.90;;;15.10;67.60;;;;;;5047585;28;20030;-72
2021/03/25 10:28:14;;;;;;;53.78;28.70;;;15.10;67.30;;;;;;5044410;28;20512;-73
2021/03/25 10:30:40;;;;;;;57.85;30.35;;;15.20;66.70;;;;;;5036867;28;20040;-73
2021/03/25 10:33:10;;;;;;;51.92;29.77;;;15.30;66.50;;;;;;5035670;28;20033;-73
2021/03/25 10:35:46;;;;;;;54.50;28.67;;;15.40;66.00;;;;;;5025372;28;20044;-73
2021/03/25 10:38:14;;;;;;;53.85;30.98;;;15.50;65.90;;;;;;5028821;28;20240;-73
2021/03/25 10:40:45;;;;;;;59.83;32.38;;;15.50;64.40;;;;;;5030531;28;20159;-73
2021/03/25 10:43:31;;;;;;;57.58;31.45;;;15.50;64.20;;;;;;5043009;28;20081;-73
2021/03/25 10:46:04;;;;;;;59.03;30.63;;;15.60;64.30;;;;;;5030491;28;20026;-73
2021/03/25 10:48:43;;;;;;;55.63;30.13;;;15.70;64.70;;;;;;5028388;28;20160;-73
2021/03/25 10:51:11;;;;;;;55.42;31.25;;;15.70;63.50;;;;;;5003522;28;20504;-74
2021/03/25 10:53:38;;;;;;;48.90;28.23;;;15.70;61.90;;;;;;5031405;28;20115;-74
2021/03/25 10:56:18;;;;;;;56.80;31.30;;;15.80;63.00;;;;;;5043916;28;20021;-73
2021/03/25 10:58:53;;;;;;;58.92;32.22;;;15.80;62.40;;;;;;5030311;28;20041;-74
2021/03/25 11:01:29;;;;;;;54.53;30.63;;;15.90;62.60;;;;;;5028569;28;20038;-74
2021/03/25 11:03:55;;;;;;;53.72;29.58;;;16.00;62.60;;;;;;5022104;28;20041;-74
2021/03/25 11:06:33;;;;;;;46.78;26.25;;;16.00;61.90;;;;;;5025913;28;20123;-74
2021/03/25 11:09:20;;;;;;;50.00;26.95;;;16.00;61.60;;;;;;5034690;28;20026;-73
2021/03/25 11:11:55;;;;;;;49.00;26.83;;;16.20;61.30;;;;;;5034495;28;20091;-73
2021/03/25 11:14:35;;;;;;;46.35;26.25;;;16.20;60.40;;;;;;5017088;28;20650;-74
2021/03/25 11:17:13;;;;;;;47.00;26.02;;;16.20;60.00;;;;;;5030961;28;20030;-73
2021/03/25 11:19:40;;;;;;;47.33;27.17;;;16.30;60.10;;;;;;5034479;28;20037;-73
2021/03/25 11:22:11;;;;;;;42.83;24.55;;;16.30;59.70;;;;;;5034130;28;20046;-74
2021/03/25 11:24:38;;;;;;;44.60;26.02;;;16.30;59.10;;;;;;5034978;28;20064;-73
2021/03/25 11:27:10;;;;;;;43.70;24.10;;;16.30;59.30;;;;;;5034650;28;20026;-74
2021/03/25 11:29:39;;;;;;;35.92;22.60;;;16.40;59.70;;;;;;5022420;28;20026;-72
2021/03/25 11:32:18;;;;;;;38.70;23.65;;;16.50;60.50;;;;;;5016479;28;20037;-72
2021/03/25 11:34:48;;;;;;;43.50;25.30;;;16.60;60.10;;;;;;5015311;28;20087;-72
2021/03/25 11:37:35;;;;;;;48.92;25.77;;;16.60;59.30;;;;;;5039830;28;20135;-73
2021/03/25 11:40:14;;;;;;;45.90;26.33;;;16.60;58.70;;;;;;5033130;28;20041;-74
2021/03/25 11:42:45;;;;;;;44.78;25.42;;;16.70;58.50;;;;;;5033155;28;20040;-73
2021/03/25 11:45:37;;;;;;;42.58;25.08;;;16.70;58.20;;;;;;5032091;28;20175;-73
2021/03/25 11:48:14;;;;;;;36.05;21.73;;;16.70;58.10;;;;;;5034043;28;20505;-74
2021/03/25 11:50:39;;;;;;;43.90;26.30;;;16.70;58.20;;;;;;5033891;28;20029;-73
2021/03/25 11:53:24;;;;;;;42.80;23.88;;;16.70;57.60;;;;;;5033600;28;20033;-74
2021/03/25 11:55:53;;;;;;;45.35;25.17;;;16.70;57.80;;;;;;5033393;28;20057;-73
2021/03/25 11:58:22;;;;;;;38.33;23.02;;;16.70;57.30;;;;;;5031435;28;20527;-72
2021/03/25 12:01:24;;;;;;;35.63;22.13;;;16.80;57.20;;;;;;5031227;28;20080;-72
2021/03/25 12:03:55;;;;;;;38.25;22.85;;;16.90;56.50;;;;;;5033382;28;20033;-73
2021/03/25 12:06:25;;;;;;;41.47;23.15;;;16.90;55.90;;;;;;5022477;28;20061;-73
2021/03/25 12:09:18;;;;;;;42.13;24.17;;;16.90;55.10;;;;;;5015947;28;20148;-72
2021/03/25 12:11:47;;;;;;;38.38;22.25;;;17.00;54.40;;;;;;5032969;28;20030;-72
2021/03/25 12:14:14;;;;;;;35.80;21.08;;;17.00;54.30;;;;;;5033340;28;20032;-72
2021/03/25 12:16:39;;;;;;;36.92;19.65;;;17.10;54.20;;;;;;5053659;28;20087;-72
2021/03/25 12:19:06;;;;;;;41.47;23.05;;;17.20;54.60;;;;;;5046229;28;20033;-72
2021/03/25 12:21:33;;;;;;;38.35;22.48;;;17.30;54.20;;;;;;5029354;28;20037;-72
2021/03/25 12:24:01;;;;;;;38.75;21.83;;;17.30;54.00;;;;;;5029169;28;20076;-72
2021/03/25 12:26:27;;;;;;;37.50;21.50;;;17.40;53.80;;;;;;5031469;28;20385;-70
2021/03/25 12:28:53;;;;;;;40.53;22.98;;;17.40;54.00;;;;;;5028673;28;20037;-69
2021/03/25 12:31:27;;;;;;;36.92;22.15;;;17.40;53.00;;;;;;5030599;28;20030;-69
2021/03/25 12:33:53;;;;;;;35.50;21.02;;;17.40;51.80;;;;;;5028382;28;20678;-69
2021/03/25 12:36:20;;;;;;;39.58;23.88;;;17.40;52.30;;;;;;5029941;28;20056;-69
2021/03/25 12:38:46;;;;;;;34.97;21.60;;;17.40;52.20;;;;;;5038698;28;20048;-70
2021/03/25 12:41:29;;;;;;;30.60;19.10;;;17.50;51.90;;;;;;5036176;28;20041;-68
2021/03/25 12:43:54;;;;;;;39.42;21.60;;;17.50;51.20;;;;;;5026140;28;20029;-69
2021/03/25 12:46:20;;;;;;;38.33;20.63;;;17.60;51.00;;;;;;5028688;28;20036;-69
2021/03/25 12:48:45;;;;;;;34.40;20.17;;;17.70;51.40;;;;;;5032649;28;20033;-70
2021/03/25 12:51:13;;;;;;;35.20;21.35;;;17.80;51.40;;;;;;5031436;28;20056;-70
2021/03/25 12:53:39;;;;;;;34.70;19.50;;;17.90;51.20;;;;;;5051349;28;20033;-70
2021/03/25 12:56:04;;;;;;;31.50;19.90;;;17.90;51.10;;;;;;5035541;28;20037;-69
2021/03/25 12:58:38;;;;;;;35.08;20.85;;;18.00;50.80;;;;;;5039335;28;20033;-70
2021/03/25 13:01:11;;;;;;;34.50;20.55;;;18.10;50.30;;;;;;5032107;28;20041;-70
2021/03/25 13:03:39;;;;;;;37.35;21.33;;;18.20;50.30;;;;;;5049929;28;20071;-70
2021/03/25 13:06:07;;;;;;;34.15;19.88;;;18.30;50.20;;;;;;5042560;28;20033;-71
2021/03/25 13:08:32;;;;;;;38.45;19.77;;;18.30;49.60;;;;;;5028916;28;20034;-70
2021/03/25 13:10:58;;;;;;;34.15;21.65;;;18.40;49.30;;;;;;5032098;28;20193;-70